Terminal Aerodrome Forecast
Issued by NWS Tampa Bay Area, FL

Home | Current Version | Previous Version | Text Only | Print | Product List | Glossary On
Versions: 1 2 3 4 5 6 7 8 9 10 11 12
000
FTUS42 KTBW 252300
TAFFMY
TAF
KFMY 252340Z 2600/2624 35005KT P6SM SKC
     FM260300 03005KT P6SM SKC
     FM262000 33007KT P6SM FEW040=

USA.gov is the U.S. government's official web portal to all federal, state and local government web resources and services.